sensor_id;sensor_type;location;lat;lon;timestamp;temperature;humidity
27534;DHT22;14973;51.460;7.008;2023-09-12T00:00:47;21.00;1.00
27534;DHT22;14973;51.460;7.008;2023-09-12T00:03:13;21.00;1.00
27534;DHT22;14973;51.460;7.008;2023-09-12T00:05:39;20.90;1.00
27534;DHT22;14973;51.460;7.008;2023-09-12T00:08:05;21.00;1.00
27534;DHT22;14973;51.460;7.008;2023-09-12T00:10:31;21.00;1.00
27534;DHT22;14973;51.460;7.008;2023-09-12T00:12:56;21.00;1.00
27534;DHT22;14973;51.460;7.008;2023-09-12T00:15:22;21.00;1.00
27534;DHT22;14973;51.460;7.008;2023-09-12T00:17:47;20.90;1.00
27534;DHT22;14973;51.460;7.008;2023-09-12T00:20:14;20.90;1.00
27534;DHT22;14973;51.460;7.008;2023-09-12T00:22:40;20.90;1.00
27534;DHT22;14973;51.460;7.008;2023-09-12T00:25:06;20.90;1.00
27534;DHT22;14973;51.460;7.008;2023-09-12T00:27:32;20.90;1.00
27534;DHT22;14973;51.460;7.008;2023-09-12T00:29:57;20.80;1.00
27534;DHT22;14973;51.460;7.008;2023-09-12T00:32:23;20.90;1.00
27534;DHT22;14973;51.460;7.008;2023-09-12T00:34:48;20.90;1.00
27534;DHT22;14973;51.460;7.008;2023-09-12T00:37:14;20.80;1.00
27534;DHT22;14973;51.460;7.008;2023-09-12T00:39:39;20.80;1.00
27534;DHT22;14973;51.460;7.008;2023-09-12T00:42:05;20.90;1.00
27534;DHT22;14973;51.460;7.008;2023-09-12T00:44:33;20.90;1.00
27534;DHT22;14973;51.460;7.008;2023-09-12T00:47:00;20.80;6.90
27534;DHT22;14973;51.460;7.008;2023-09-12T00:49:26;20.80;28.50
27534;DHT22;14973;51.460;7.008;2023-09-12T00:51:54;20.70;50.50
27534;DHT22;14973;51.460;7.008;2023-09-12T00:54:21;20.60;75.90
27534;DHT22;14973;51.460;7.008;2023-09-12T00:56:46;20.50;96.10
27534;DHT22;14973;51.460;7.008;2023-09-12T00:59:14;20.50;99.90
27534;DHT22;14973;51.460;7.008;2023-09-12T01:01:41;20.40;99.90
27534;DHT22;14973;51.460;7.008;2023-09-12T01:04:07;20.30;99.90
27534;DHT22;14973;51.460;7.008;2023-09-12T01:06:33;20.30;99.90
27534;DHT22;14973;51.460;7.008;2023-09-12T01:09:00;20.20;99.90
27534;DHT22;14973;51.460;7.008;2023-09-12T01:11:26;20.10;99.90
27534;DHT22;14973;51.460;7.008;2023-09-12T01:13:53;19.90;99.90
27534;DHT22;14973;51.460;7.008;2023-09-12T01:16:18;19.80;99.90
27534;DHT22;14973;51.460;7.008;2023-09-12T01:18:44;19.70;99.90
27534;DHT22;14973;51.460;7.008;2023-09-12T01:21:36;19.70;99.90
27534;DHT22;14973;51.460;7.008;2023-09-12T01:27:17;19.70;99.90
27534;DHT22;14973;51.460;7.008;2023-09-12T01:29:45;19.60;99.90
27534;DHT22;14973;51.460;7.008;2023-09-12T01:32:12;19.50;99.90
27534;DHT22;14973;51.460;7.008;2023-09-12T01:34:39;19.50;99.90
27534;DHT22;14973;51.460;7.008;2023-09-12T01:37:05;19.50;99.90
27534;DHT22;14973;51.460;7.008;2023-09-12T01:39:30;19.50;99.90
27534;DHT22;14973;51.460;7.008;2023-09-12T01:41:59;19.60;99.90
27534;DHT22;14973;51.460;7.008;2023-09-12T01:44:25;19.60;99.90
27534;DHT22;14973;51.460;7.008;2023-09-12T01:46:54;19.60;99.90
27534;DHT22;14973;51.460;7.008;2023-09-12T01:49:22;19.60;99.90
27534;DHT22;14973;51.460;7.008;2023-09-12T01:51:50;19.60;99.90
27534;DHT22;14973;51.460;7.008;2023-09-12T01:54:16;19.50;99.90
27534;DHT22;14973;51.460;7.008;2023-09-12T01:56:42;19.50;99.90
27534;DHT22;14973;51.460;7.008;2023-09-12T01:59:08;19.50;99.90
27534;DHT22;14973;51.460;7.008;2023-09-12T02:01:34;19.60;99.90
27534;DHT22;14973;51.460;7.008;2023-09-12T02:04:00;19.60;99.90
27534;DHT22;14973;51.460;7.008;2023-09-12T02:06:25;19.60;99.90
27534;DHT22;14973;51.460;7.008;2023-09-12T02:08:51;19.70;99.90
27534;DHT22;14973;51.460;7.008;2023-09-12T02:11:16;19.70;99.90
27534;DHT22;14973;51.460;7.008;2023-09-12T02:13:42;19.60;99.90
27534;DHT22;14973;51.460;7.008;2023-09-12T02:16:08;19.50;99.90
27534;DHT22;14973;51.460;7.008;2023-09-12T02:18:34;19.50;99.90
27534;DHT22;14973;51.460;7.008;2023-09-12T02:20:59;19.40;99.90
27534;DHT22;14973;51.460;7.008;2023-09-12T02:23:25;19.40;99.90
27534;DHT22;14973;51.460;7.008;2023-09-12T02:25:50;19.40;99.90
27534;DHT22;14973;51.460;7.008;2023-09-12T02:28:16;19.50;99.90
27534;DHT22;14973;51.460;7.008;2023-09-12T02:30:41;19.50;99.90
27534;DHT22;14973;51.460;7.008;2023-09-12T02:33:07;19.40;99.90
27534;DHT22;14973;51.460;7.008;2023-09-12T02:35:32;19.30;99.90
27534;DHT22;14973;51.460;7.008;2023-09-12T02:37:58;19.30;99.90
27534;DHT22;14973;51.460;7.008;2023-09-12T02:40:24;19.30;99.90
27534;DHT22;14973;51.460;7.008;2023-09-12T02:42:50;19.30;99.90
27534;DHT22;14973;51.460;7.008;2023-09-12T02:45:15;19.30;99.90
27534;DHT22;14973;51.460;7.008;2023-09-12T02:47:41;19.50;99.90
27534;DHT22;14973;51.460;7.008;2023-09-12T02:50:09;19.40;99.90
27534;DHT22;14973;51.460;7.008;2023-09-12T02:52:34;19.40;99.90
27534;DHT22;14973;51.460;7.008;2023-09-12T02:55:00;19.50;99.90
27534;DHT22;14973;51.460;7.008;2023-09-12T02:57:25;19.60;99.90
27534;DHT22;14973;51.460;7.008;2023-09-12T02:59:51;19.60;99.90
27534;DHT22;14973;51.460;7.008;2023-09-12T03:02:17;19.60;99.90
27534;DHT22;14973;51.460;7.008;2023-09-12T03:04:42;19.50;99.90
27534;DHT22;14973;51.460;7.008;2023-09-12T03:07:08;19.70;99.90
27534;DHT22;14973;51.460;7.008;2023-09-12T03:09:33;19.60;99.90
27534;DHT22;14973;51.460;7.008;2023-09-12T03:12:01;19.40;99.90
27534;DHT22;14973;51.460;7.008;2023-09-12T03:14:28;19.20;99.90
27534;DHT22;14973;51.460;7.008;2023-09-12T03:16:54;19.30;99.90
27534;DHT22;14973;51.460;7.008;2023-09-12T03:19:19;19.20;99.90
27534;DHT22;14973;51.460;7.008;2023-09-12T03:21:45;19.20;99.90
27534;DHT22;14973;51.460;7.008;2023-09-12T03:24:11;19.10;99.90
27534;DHT22;14973;51.460;7.008;2023-09-12T03:26:36;19.10;99.90
27534;DHT22;14973;51.460;7.008;2023-09-12T03:29:03;19.00;99.90
27534;DHT22;14973;51.460;7.008;2023-09-12T03:31:28;19.10;99.90
27534;DHT22;14973;51.460;7.008;2023-09-12T03:33:54;19.10;99.90
27534;DHT22;14973;51.460;7.008;2023-09-12T03:36:20;19.10;99.90
27534;DHT22;14973;51.460;7.008;2023-09-12T03:38:45;19.10;99.90
27534;DHT22;14973;51.460;7.008;2023-09-12T03:41:11;19.20;99.90
27534;DHT22;14973;51.460;7.008;2023-09-12T03:43:37;19.00;99.90
27534;DHT22;14973;51.460;7.008;2023-09-12T03:46:03;19.00;99.90
27534;DHT22;14973;51.460;7.008;2023-09-12T03:48:31;19.00;99.90
27534;DHT22;14973;51.460;7.008;2023-09-12T03:50:57;19.00;99.90
27534;DHT22;14973;51.460;7.008;2023-09-12T03:53:23;19.00;99.90
27534;DHT22;14973;51.460;7.008;2023-09-12T03:55:48;19.00;99.90
27534;DHT22;14973;51.460;7.008;2023-09-12T03:58:14;19.00;99.90
27534;DHT22;14973;51.460;7.008;2023-09-12T04:00:39;18.90;99.90
27534;DHT22;14973;51.460;7.008;2023-09-12T04:03:05;18.90;99.90
27534;DHT22;14973;51.460;7.008;2023-09-12T04:05:31;18.90;99.90
27534;DHT22;14973;51.460;7.008;2023-09-12T04:07:56;18.90;99.90
27534;DHT22;14973;51.460;7.008;2023-09-12T04:10:22;18.80;99.90
27534;DHT22;14973;51.460;7.008;2023-09-12T04:12:48;18.90;99.90
27534;DHT22;14973;51.460;7.008;2023-09-12T04:15:14;18.90;99.90
27534;DHT22;14973;51.460;7.008;2023-09-12T04:17:39;18.80;99.90
27534;DHT22;14973;51.460;7.008;2023-09-12T04:20:05;18.90;99.90
27534;DHT22;14973;51.460;7.008;2023-09-12T04:22:31;18.90;99.90
27534;DHT22;14973;51.460;7.008;2023-09-12T04:24:57;18.90;99.90
27534;DHT22;14973;51.460;7.008;2023-09-12T04:27:22;18.90;99.90
27534;DHT22;14973;51.460;7.008;2023-09-12T04:29:48;18.90;99.90
27534;DHT22;14973;51.460;7.008;2023-09-12T04:32:13;18.90;99.90
27534;DHT22;14973;51.460;7.008;2023-09-12T04:34:42;18.90;99.90
27534;DHT22;14973;51.460;7.008;2023-09-12T04:37:08;18.90;99.90
27534;DHT22;14973;51.460;7.008;2023-09-12T04:39:33;18.80;99.90
27534;DHT22;14973;51.460;7.008;2023-09-12T04:41:59;18.80;99.90
27534;DHT22;14973;51.460;7.008;2023-09-12T04:44:24;18.70;99.90
27534;DHT22;14973;51.460;7.008;2023-09-12T04:46:50;18.80;99.90
27534;DHT22;14973;51.460;7.008;2023-09-12T04:49:16;18.80;99.90
27534;DHT22;14973;51.460;7.008;2023-09-12T04:51:41;18.80;99.90
27534;DHT22;14973;51.460;7.008;2023-09-12T04:54:08;18.80;99.90
27534;DHT22;14973;51.460;7.008;2023-09-12T04:56:34;18.90;99.90
27534;DHT22;14973;51.460;7.008;2023-09-12T04:58:59;18.80;99.90
27534;DHT22;14973;51.460;7.008;2023-09-12T05:01:25;18.90;99.90
27534;DHT22;14973;51.460;7.008;2023-09-12T05:03:51;19.00;99.90
27534;DHT22;14973;51.460;7.008;2023-09-12T05:06:17;19.00;99.90
27534;DHT22;14973;51.460;7.008;2023-09-12T05:08:42;19.00;99.90
27534;DHT22;14973;51.460;7.008;2023-09-12T05:11:08;19.00;99.90
27534;DHT22;14973;51.460;7.008;2023-09-12T05:13:34;19.10;99.90
27534;DHT22;14973;51.460;7.008;2023-09-12T05:16:00;19.10;99.90
27534;DHT22;14973;51.460;7.008;2023-09-12T05:18:25;19.00;99.90
27534;DHT22;14973;51.460;7.008;2023-09-12T05:20:51;19.10;99.90
27534;DHT22;14973;51.460;7.008;2023-09-12T05:23:16;19.10;99.90
27534;DHT22;14973;51.460;7.008;2023-09-12T05:25:42;19.20;99.90
27534;DHT22;14973;51.460;7.008;2023-09-12T05:28:07;19.20;99.90
27534;DHT22;14973;51.460;7.008;2023-09-12T05:30:33;19.20;99.90
27534;DHT22;14973;51.460;7.008;2023-09-12T05:32:59;19.20;99.90
27534;DHT22;14973;51.460;7.008;2023-09-12T05:35:24;19.30;99.90
27534;DHT22;14973;51.460;7.008;2023-09-12T05:37:50;19.30;99.90
27534;DHT22;14973;51.460;7.008;2023-09-12T05:40:18;19.40;99.90
27534;DHT22;14973;51.460;7.008;2023-09-12T05:42:43;19.40;99.90
27534;DHT22;14973;51.460;7.008;2023-09-12T05:45:09;19.30;99.90
27534;DHT22;14973;51.460;7.008;2023-09-12T05:47:35;19.30;99.90
27534;DHT22;14973;51.460;7.008;2023-09-12T05:50:00;19.50;99.90
27534;DHT22;14973;51.460;7.008;2023-09-12T05:52:27;19.50;99.90
27534;DHT22;14973;51.460;7.008;2023-09-12T05:54:53;19.50;99.90
27534;DHT22;14973;51.460;7.008;2023-09-12T05:57:18;19.50;99.90
27534;DHT22;14973;51.460;7.008;2023-09-12T05:59:44;19.50;99.90
27534;DHT22;14973;51.460;7.008;2023-09-12T06:02:09;19.60;99.90
27534;DHT22;14973;51.460;7.008;2023-09-12T06:04:36;19.50;99.90
27534;DHT22;14973;51.460;7.008;2023-09-12T06:07:02;19.60;99.90
27534;DHT22;14973;51.460;7.008;2023-09-12T06:09:28;19.70;99.90
27534;DHT22;14973;51.460;7.008;2023-09-12T06:11:57;19.80;99.90
27534;DHT22;14973;51.460;7.008;2023-09-12T06:14:22;19.90;99.90
27534;DHT22;14973;51.460;7.008;2023-09-12T06:16:48;20.00;99.90
27534;DHT22;14973;51.460;7.008;2023-09-12T06:19:14;20.10;99.90
27534;DHT22;14973;51.460;7.008;2023-09-12T06:21:40;20.20;99.90
27534;DHT22;14973;51.460;7.008;2023-09-12T06:24:11;20.20;99.90
27534;DHT22;14973;51.460;7.008;2023-09-12T06:26:38;20.30;99.90
27534;DHT22;14973;51.460;7.008;2023-09-12T06:29:04;20.30;99.90
27534;DHT22;14973;51.460;7.008;2023-09-12T06:31:30;20.20;99.90
27534;DHT22;14973;51.460;7.008;2023-09-12T06:33:55;20.00;99.90
27534;DHT22;14973;51.460;7.008;2023-09-12T06:36:22;19.60;99.90
27534;DHT22;14973;51.460;7.008;2023-09-12T06:38:49;19.30;99.90
27534;DHT22;14973;51.460;7.008;2023-09-12T06:41:15;18.80;99.90
27534;DHT22;14973;51.460;7.008;2023-09-12T06:43:40;18.70;99.90
27534;DHT22;14973;51.460;7.008;2023-09-12T06:46:07;18.40;99.90
27534;DHT22;14973;51.460;7.008;2023-09-12T06:48:33;18.30;99.90
27534;DHT22;14973;51.460;7.008;2023-09-12T06:50:59;18.20;99.90
27534;DHT22;14973;51.460;7.008;2023-09-12T06:53:24;18.30;99.90
27534;DHT22;14973;51.460;7.008;2023-09-12T06:55:50;18.20;99.90
27534;DHT22;14973;51.460;7.008;2023-09-12T06:58:15;18.10;99.90
27534;DHT22;14973;51.460;7.008;2023-09-12T07:00:41;18.10;99.90
27534;DHT22;14973;51.460;7.008;2023-09-12T07:03:06;18.10;99.90
27534;DHT22;14973;51.460;7.008;2023-09-12T07:05:34;18.10;99.90
27534;DHT22;14973;51.460;7.008;2023-09-12T07:08:01;18.10;99.90
27534;DHT22;14973;51.460;7.008;2023-09-12T07:10:26;18.10;99.90
27534;DHT22;14973;51.460;7.008;2023-09-12T07:12:53;18.20;99.90
27534;DHT22;14973;51.460;7.008;2023-09-12T07:15:19;18.10;99.90
27534;DHT22;14973;51.460;7.008;2023-09-12T07:17:44;18.10;99.90
27534;DHT22;14973;51.460;7.008;2023-09-12T07:20:10;18.10;99.90
27534;DHT22;14973;51.460;7.008;2023-09-12T07:22:38;18.00;99.90
27534;DHT22;14973;51.460;7.008;2023-09-12T07:25:05;18.10;99.90
27534;DHT22;14973;51.460;7.008;2023-09-12T07:27:30;18.10;99.90
27534;DHT22;14973;51.460;7.008;2023-09-12T07:29:56;18.10;99.90
27534;DHT22;14973;51.460;7.008;2023-09-12T07:32:22;18.20;99.90
27534;DHT22;14973;51.460;7.008;2023-09-12T07:34:48;18.30;99.90
27534;DHT22;14973;51.460;7.008;2023-09-12T07:37:14;18.40;99.90
27534;DHT22;14973;51.460;7.008;2023-09-12T07:39:40;18.60;99.90
27534;DHT22;14973;51.460;7.008;2023-09-12T07:42:05;18.80;99.90
27534;DHT22;14973;51.460;7.008;2023-09-12T07:44:31;19.10;99.90
27534;DHT22;14973;51.460;7.008;2023-09-12T07:46:57;19.20;99.90
27534;DHT22;14973;51.460;7.008;2023-09-12T07:49:22;19.50;99.90
27534;DHT22;14973;51.460;7.008;2023-09-12T07:51:49;19.70;99.90
27534;DHT22;14973;51.460;7.008;2023-09-12T07:54:15;19.90;99.90
27534;DHT22;14973;51.460;7.008;2023-09-12T07:56:43;20.00;99.90
27534;DHT22;14973;51.460;7.008;2023-09-12T07:59:08;20.00;99.90
27534;DHT22;14973;51.460;7.008;2023-09-12T08:01:35;20.10;99.90
27534;DHT22;14973;51.460;7.008;2023-09-12T08:04:01;20.30;99.90
27534;DHT22;14973;51.460;7.008;2023-09-12T08:06:26;20.00;99.90
27534;DHT22;14973;51.460;7.008;2023-09-12T08:08:52;19.80;99.90
27534;DHT22;14973;51.460;7.008;2023-09-12T08:11:18;20.00;99.90
27534;DHT22;14973;51.460;7.008;2023-09-12T08:13:45;20.00;99.90
27534;DHT22;14973;51.460;7.008;2023-09-12T08:16:11;19.90;99.90
27534;DHT22;14973;51.460;7.008;2023-09-12T08:18:36;19.80;99.90
27534;DHT22;14973;51.460;7.008;2023-09-12T08:21:02;19.90;99.90
27534;DHT22;14973;51.460;7.008;2023-09-12T08:23:27;19.80;99.90
27534;DHT22;14973;51.460;7.008;2023-09-12T08:25:53;19.70;99.90
27534;DHT22;14973;51.460;7.008;2023-09-12T08:28:19;19.60;99.90
27534;DHT22;14973;51.460;7.008;2023-09-12T08:30:45;19.70;99.90
27534;DHT22;14973;51.460;7.008;2023-09-12T08:33:13;19.70;99.90
27534;DHT22;14973;51.460;7.008;2023-09-12T08:35:39;19.50;99.90
27534;DHT22;14973;51.460;7.008;2023-09-12T08:38:05;19.50;99.90
27534;DHT22;14973;51.460;7.008;2023-09-12T08:40:32;20.00;99.90
27534;DHT22;14973;51.460;7.008;2023-09-12T08:42:58;20.70;99.90
27534;DHT22;14973;51.460;7.008;2023-09-12T08:45:24;21.60;99.90
27534;DHT22;14973;51.460;7.008;2023-09-12T08:47:51;22.30;99.90
27534;DHT22;14973;51.460;7.008;2023-09-12T08:50:17;22.00;99.90
27534;DHT22;14973;51.460;7.008;2023-09-12T08:52:44;22.60;99.90
27534;DHT22;14973;51.460;7.008;2023-09-12T08:55:11;24.00;99.90
27534;DHT22;14973;51.460;7.008;2023-09-12T08:57:42;25.40;99.90
27534;DHT22;14973;51.460;7.008;2023-09-12T09:00:09;26.50;67.50
27534;DHT22;14973;51.460;7.008;2023-09-12T09:02:38;27.20;27.40
27534;DHT22;14973;51.460;7.008;2023-09-12T09:05:07;28.50;99.90
27534;DHT22;14973;51.460;7.008;2023-09-12T09:07:38;30.00;99.90
27534;DHT22;14973;51.460;7.008;2023-09-12T09:10:05;31.10;1.00
27534;DHT22;14973;51.460;7.008;2023-09-12T09:12:34;30.70;1.00
27534;DHT22;14973;51.460;7.008;2023-09-12T09:15:26;32.00;1.00
27534;DHT22;14973;51.460;7.008;2023-09-12T09:17:54;32.90;1.00
27534;DHT22;14973;51.460;7.008;2023-09-12T09:25:26;34.80;99.90
27534;DHT22;14973;51.460;7.008;2023-09-12T09:27:52;35.50;99.90
27534;DHT22;14973;51.460;7.008;2023-09-12T09:30:18;35.20;99.90
27534;DHT22;14973;51.460;7.008;2023-09-12T09:32:45;34.90;99.90
27534;DHT22;14973;51.460;7.008;2023-09-12T09:35:12;34.10;99.90
27534;DHT22;14973;51.460;7.008;2023-09-12T09:37:38;33.50;99.90
27534;DHT22;14973;51.460;7.008;2023-09-12T09:40:07;33.10;99.90
27534;DHT22;14973;51.460;7.008;2023-09-12T09:42:32;32.60;99.90
27534;DHT22;14973;51.460;7.008;2023-09-12T09:44:58;32.20;99.90
27534;DHT22;14973;51.460;7.008;2023-09-12T09:47:23;32.10;99.90
27534;DHT22;14973;51.460;7.008;2023-09-12T09:49:51;31.80;99.90
27534;DHT22;14973;51.460;7.008;2023-09-12T09:52:25;31.70;99.90
27534;DHT22;14973;51.460;7.008;2023-09-12T09:54:52;31.50;99.90
27534;DHT22;14973;51.460;7.008;2023-09-12T09:57:17;31.20;99.90
27534;DHT22;14973;51.460;7.008;2023-09-12T09:59:49;30.90;99.90
27534;DHT22;14973;51.460;7.008;2023-09-12T10:02:18;31.10;99.90
27534;DHT22;14973;51.460;7.008;2023-09-12T10:04:47;31.30;99.90
27534;DHT22;14973;51.460;7.008;2023-09-12T10:07:13;31.30;99.90
27534;DHT22;14973;51.460;7.008;2023-09-12T10:09:40;31.40;99.90
27534;DHT22;14973;51.460;7.008;2023-09-12T10:12:08;31.50;99.90
27534;DHT22;14973;51.460;7.008;2023-09-12T10:14:34;31.10;99.90
27534;DHT22;14973;51.460;7.008;2023-09-12T10:17:02;30.60;99.90
27534;DHT22;14973;51.460;7.008;2023-09-12T10:19:49;30.20;99.90
27534;DHT22;14973;51.460;7.008;2023-09-12T10:22:21;29.70;99.90
27534;DHT22;14973;51.460;7.008;2023-09-12T10:24:49;29.40;1.00
27534;DHT22;14973;51.460;7.008;2023-09-12T10:27:18;29.40;1.00
27534;DHT22;14973;51.460;7.008;2023-09-12T10:29:44;29.60;1.00
27534;DHT22;14973;51.460;7.008;2023-09-12T10:32:14;29.50;1.00
27534;DHT22;14973;51.460;7.008;2023-09-12T10:34:41;29.50;1.00
27534;DHT22;14973;51.460;7.008;2023-09-12T10:37:15;28.90;1.00
27534;DHT22;14973;51.460;7.008;2023-09-12T10:39:43;28.80;1.00
27534;DHT22;14973;51.460;7.008;2023-09-12T10:42:09;28.90;1.00
27534;DHT22;14973;51.460;7.008;2023-09-12T10:44:36;28.70;1.00
27534;DHT22;14973;51.460;7.008;2023-09-12T10:47:01;28.50;1.00
27534;DHT22;14973;51.460;7.008;2023-09-12T10:49:30;28.00;1.00
27534;DHT22;14973;51.460;7.008;2023-09-12T10:51:57;27.50;99.90
27534;DHT22;14973;51.460;7.008;2023-09-12T10:54:25;27.70;99.90
27534;DHT22;14973;51.460;7.008;2023-09-12T10:57:10;28.00;10.70
27534;DHT22;14973;51.460;7.008;2023-09-12T11:02:31;28.20;1.00
27534;DHT22;14973;51.460;7.008;2023-09-12T11:05:34;28.40;27.30
27534;DHT22;14973;51.460;7.008;2023-09-12T11:07:49;29.00;1.00
27534;DHT22;14973;51.460;7.008;2023-09-12T11:10:16;29.10;1.00
27534;DHT22;14973;51.460;7.008;2023-09-12T11:12:45;28.80;1.00
27534;DHT22;14973;51.460;7.008;2023-09-12T11:15:11;28.80;1.00
27534;DHT22;14973;51.460;7.008;2023-09-12T11:17:41;28.80;1.00
27534;DHT22;14973;51.460;7.008;2023-09-12T11:20:07;28.10;1.00
27534;DHT22;14973;51.460;7.008;2023-09-12T11:25:24;28.40;1.00
27534;DHT22;14973;51.460;7.008;2023-09-12T11:30:24;28.30;1.00
27534;DHT22;14973;51.460;7.008;2023-09-12T11:32:51;28.30;1.00
27534;DHT22;14973;51.460;7.008;2023-09-12T11:35:22;28.40;1.00
27534;DHT22;14973;51.460;7.008;2023-09-12T11:37:54;28.20;1.00
27534;DHT22;14973;51.460;7.008;2023-09-12T11:42:58;28.30;1.00
27534;DHT22;14973;51.460;7.008;2023-09-12T11:45:24;28.40;1.00
27534;DHT22;14973;51.460;7.008;2023-09-12T11:47:50;28.30;1.00
27534;DHT22;14973;51.460;7.008;2023-09-12T11:50:35;28.60;1.00
27534;DHT22;14973;51.460;7.008;2023-09-12T11:53:06;28.90;1.00
27534;DHT22;14973;51.460;7.008;2023-09-12T11:55:44;28.80;1.00
27534;DHT22;14973;51.460;7.008;2023-09-12T11:58:11;29.10;1.00
27534;DHT22;14973;51.460;7.008;2023-09-12T12:00:42;28.90;1.00
27534;DHT22;14973;51.460;7.008;2023-09-12T12:03:08;28.50;1.00
27534;DHT22;14973;51.460;7.008;2023-09-12T12:05:34;28.00;1.00
27534;DHT22;14973;51.460;7.008;2023-09-12T12:08:00;27.00;1.00
27534;DHT22;14973;51.460;7.008;2023-09-12T12:10:26;27.00;1.00
27534;DHT22;14973;51.460;7.008;2023-09-12T12:12:53;27.10;1.00
27534;DHT22;14973;51.460;7.008;2023-09-12T12:15:20;27.60;1.00
27534;DHT22;14973;51.460;7.008;2023-09-12T12:17:45;27.80;1.00
27534;DHT22;14973;51.460;7.008;2023-09-12T12:20:11;28.10;1.00
27534;DHT22;14973;51.460;7.008;2023-09-12T12:22:40;28.10;1.00
27534;DHT22;14973;51.460;7.008;2023-09-12T12:25:10;28.10;1.00
27534;DHT22;14973;51.460;7.008;2023-09-12T12:27:39;28.10;1.00
27534;DHT22;14973;51.460;7.008;2023-09-12T12:30:10;28.20;1.00
27534;DHT22;14973;51.460;7.008;2023-09-12T12:32:43;28.40;1.00
27534;DHT22;14973;51.460;7.008;2023-09-12T12:35:26;28.20;1.00
27534;DHT22;14973;51.460;7.008;2023-09-12T12:37:55;28.30;1.00
27534;DHT22;14973;51.460;7.008;2023-09-12T12:40:24;28.30;1.00
27534;DHT22;14973;51.460;7.008;2023-09-12T12:42:50;28.20;1.00
27534;DHT22;14973;51.460;7.008;2023-09-12T12:45:17;28.40;1.00
27534;DHT22;14973;51.460;7.008;2023-09-12T12:47:44;28.00;1.00
27534;DHT22;14973;51.460;7.008;2023-09-12T12:50:16;27.40;1.00
27534;DHT22;14973;51.460;7.008;2023-09-12T12:52:46;27.30;1.00
27534;DHT22;14973;51.460;7.008;2023-09-12T12:55:12;27.10;1.00
27534;DHT22;14973;51.460;7.008;2023-09-12T12:57:39;27.30;1.00
27534;DHT22;14973;51.460;7.008;2023-09-12T13:00:07;27.50;1.00
27534;DHT22;14973;51.460;7.008;2023-09-12T13:02:33;27.60;1.00
27534;DHT22;14973;51.460;7.008;2023-09-12T13:04:58;27.60;1.00
27534;DHT22;14973;51.460;7.008;2023-09-12T13:07:24;27.70;1.00
27534;DHT22;14973;51.460;7.008;2023-09-12T13:09:50;27.70;1.00
27534;DHT22;14973;51.460;7.008;2023-09-12T13:12:15;27.90;1.00
27534;DHT22;14973;51.460;7.008;2023-09-12T13:14:43;28.00;1.00
27534;DHT22;14973;51.460;7.008;2023-09-12T13:17:09;28.10;1.00
27534;DHT22;14973;51.460;7.008;2023-09-12T13:19:35;27.80;1.00
27534;DHT22;14973;51.460;7.008;2023-09-12T13:22:00;27.80;1.00
27534;DHT22;14973;51.460;7.008;2023-09-12T13:24:26;27.70;1.00
27534;DHT22;14973;51.460;7.008;2023-09-12T13:26:51;27.70;1.00
27534;DHT22;14973;51.460;7.008;2023-09-12T13:29:18;28.00;1.00
27534;DHT22;14973;51.460;7.008;2023-09-12T13:31:43;28.20;1.00
27534;DHT22;14973;51.460;7.008;2023-09-12T13:34:09;28.30;1.00
27534;DHT22;14973;51.460;7.008;2023-09-12T13:36:34;28.20;1.00
27534;DHT22;14973;51.460;7.008;2023-09-12T13:39:00;27.90;1.00
27534;DHT22;14973;51.460;7.008;2023-09-12T13:41:26;27.80;1.00
27534;DHT22;14973;51.460;7.008;2023-09-12T13:43:53;27.70;1.00
27534;DHT22;14973;51.460;7.008;2023-09-12T13:46:18;27.60;1.00
27534;DHT22;14973;51.460;7.008;2023-09-12T13:48:44;27.70;1.00
27534;DHT22;14973;51.460;7.008;2023-09-12T13:51:09;27.70;1.00
27534;DHT22;14973;51.460;7.008;2023-09-12T13:53:35;27.70;1.00
27534;DHT22;14973;51.460;7.008;2023-09-12T13:56:00;27.60;1.00
27534;DHT22;14973;51.460;7.008;2023-09-12T13:58:27;27.50;1.00
27534;DHT22;14973;51.460;7.008;2023-09-12T14:00:53;27.50;1.00
27534;DHT22;14973;51.460;7.008;2023-09-12T14:03:18;27.70;1.00
27534;DHT22;14973;51.460;7.008;2023-09-12T14:05:44;27.60;1.00
27534;DHT22;14973;51.460;7.008;2023-09-12T14:08:09;27.50;1.00
27534;DHT22;14973;51.460;7.008;2023-09-12T14:10:35;27.50;1.00
27534;DHT22;14973;51.460;7.008;2023-09-12T14:13:01;27.40;1.00
27534;DHT22;14973;51.460;7.008;2023-09-12T14:15:26;27.20;1.00
27534;DHT22;14973;51.460;7.008;2023-09-12T14:17:52;27.00;1.00
27534;DHT22;14973;51.460;7.008;2023-09-12T14:20:17;26.80;1.00
27534;DHT22;14973;51.460;7.008;2023-09-12T14:22:43;26.90;1.00
27534;DHT22;14973;51.460;7.008;2023-09-12T14:25:10;27.00;1.00
27534;DHT22;14973;51.460;7.008;2023-09-12T14:27:43;27.00;1.00
27534;DHT22;14973;51.460;7.008;2023-09-12T14:30:10;27.00;1.00
27534;DHT22;14973;51.460;7.008;2023-09-12T14:32:36;27.00;1.00
27534;DHT22;14973;51.460;7.008;2023-09-12T14:35:03;27.00;1.00
27534;DHT22;14973;51.460;7.008;2023-09-12T14:37:29;27.20;1.00
27534;DHT22;14973;51.460;7.008;2023-09-12T14:39:54;27.30;1.00
27534;DHT22;14973;51.460;7.008;2023-09-12T14:42:21;27.50;1.00
27534;DHT22;14973;51.460;7.008;2023-09-12T14:44:47;27.50;1.00
27534;DHT22;14973;51.460;7.008;2023-09-12T14:47:13;27.60;1.00
27534;DHT22;14973;51.460;7.008;2023-09-12T14:49:38;27.70;1.00
27534;DHT22;14973;51.460;7.008;2023-09-12T14:52:04;27.70;1.00
27534;DHT22;14973;51.460;7.008;2023-09-12T14:54:30;27.60;1.00
27534;DHT22;14973;51.460;7.008;2023-09-12T14:56:55;27.60;1.00
27534;DHT22;14973;51.460;7.008;2023-09-12T14:59:21;27.40;1.00
27534;DHT22;14973;51.460;7.008;2023-09-12T15:01:47;27.30;1.00
27534;DHT22;14973;51.460;7.008;2023-09-12T15:04:12;27.00;1.00
27534;DHT22;14973;51.460;7.008;2023-09-12T15:06:38;26.90;1.00
27534;DHT22;14973;51.460;7.008;2023-09-12T15:09:04;26.70;1.00
27534;DHT22;14973;51.460;7.008;2023-09-12T15:11:30;26.40;19.60
27534;DHT22;14973;51.460;7.008;2023-09-12T15:13:57;26.20;95.70
27534;DHT22;14973;51.460;7.008;2023-09-12T15:16:22;26.10;99.90
27534;DHT22;14973;51.460;7.008;2023-09-12T15:18:48;26.00;99.90
27534;DHT22;14973;51.460;7.008;2023-09-12T15:21:14;25.80;99.90
27534;DHT22;14973;51.460;7.008;2023-09-12T15:23:39;25.70;99.90
27534;DHT22;14973;51.460;7.008;2023-09-12T15:26:05;25.60;1.00
27534;DHT22;14973;51.460;7.008;2023-09-12T15:28:30;25.60;1.00
27534;DHT22;14973;51.460;7.008;2023-09-12T15:30:56;25.60;99.90
27534;DHT22;14973;51.460;7.008;2023-09-12T15:33:22;25.40;99.90
27534;DHT22;14973;51.460;7.008;2023-09-12T15:35:48;25.50;99.90
27534;DHT22;14973;51.460;7.008;2023-09-12T15:38:14;25.50;99.90
27534;DHT22;14973;51.460;7.008;2023-09-12T15:40:40;25.50;1.00
27534;DHT22;14973;51.460;7.008;2023-09-12T15:43:05;25.40;99.90
27534;DHT22;14973;51.460;7.008;2023-09-12T15:45:31;25.40;1.00
27534;DHT22;14973;51.460;7.008;2023-09-12T15:47:57;25.20;1.00
27534;DHT22;14973;51.460;7.008;2023-09-12T15:50:22;25.20;99.90
27534;DHT22;14973;51.460;7.008;2023-09-12T15:52:48;25.20;99.90